createdAt,value
2022-09-18T00:00:52.311Z,10.65
2022-09-18T00:03:24.568Z,10.73
2022-09-18T00:05:56.631Z,10.76
2022-09-18T00:08:28.812Z,10.68
2022-09-18T00:11:06.444Z,10.65
2022-09-18T00:13:39.455Z,10.65
2022-09-18T00:16:15.143Z,10.65
2022-09-18T00:18:48.114Z,10.66
2022-09-18T00:21:24.746Z,10.63
2022-09-18T00:23:59.016Z,10.58
2022-09-18T00:26:31.548Z,10.55
2022-09-18T00:29:05.061Z,10.53
2022-09-18T00:31:37.577Z,10.45
2022-09-18T00:34:14.524Z,10.44
2022-09-18T00:36:46.534Z,10.50
2022-09-18T00:39:18.446Z,10.46
2022-09-18T00:41:50.437Z,10.51
2022-09-18T00:44:41.135Z,10.48
2022-09-18T00:47:28.744Z,10.42
2022-09-18T00:50:08.235Z,10.31
2022-09-18T00:53:02.258Z,10.35
2022-09-18T00:55:39.673Z,10.32
2022-09-18T00:58:12.228Z,10.35
2022-09-18T01:00:44.283Z,10.41
2022-09-18T01:03:16.297Z,10.36
2022-09-18T01:06:33.726Z,10.44
2022-09-18T01:09:28.548Z,10.54
2022-09-18T01:12:29.517Z,10.56
2022-09-18T01:15:21.512Z,10.60
2022-09-18T01:18:20.747Z,10.66
2022-09-18T01:21:05.058Z,10.63
2022-09-18T01:24:06.641Z,10.58
2022-09-18T01:26:57.797Z,10.56
2022-09-18T01:30:01.005Z,10.58
2022-09-18T01:32:42.165Z,10.59
2022-09-18T01:35:47.173Z,10.56
2022-09-18T01:38:34.243Z,10.57
2022-09-18T01:41:16.748Z,10.56
2022-09-18T01:43:54.630Z,10.56
2022-09-18T01:46:26.914Z,10.53
2022-09-18T01:49:28.394Z,10.50
2022-09-18T01:52:11.028Z,10.51
2022-09-18T01:54:46.109Z,10.51
2022-09-18T01:57:56.377Z,10.52
2022-09-18T02:00:30.582Z,10.48
2022-09-18T02:03:26.488Z,10.51
2022-09-18T02:06:02.510Z,10.55
2022-09-18T02:08:51.195Z,10.54
2022-09-18T02:11:23.965Z,10.56
2022-09-18T02:14:06.148Z,10.58
2022-09-18T02:16:46.928Z,10.54
2022-09-18T02:19:35.756Z,10.50
2022-09-18T02:22:14.133Z,10.53
2022-09-18T02:24:49.479Z,10.55
2022-09-18T02:27:23.034Z,10.54
2022-09-18T02:29:56.426Z,10.51
2022-09-18T02:32:28.959Z,10.57
2022-09-18T02:35:00.925Z,10.59
2022-09-18T02:37:59.268Z,10.57
2022-09-18T02:41:03.251Z,10.60
2022-09-18T02:43:55.972Z,10.54
2022-09-18T02:46:52.063Z,10.51
2022-09-18T02:49:55.399Z,10.50
2022-09-18T02:52:57.541Z,10.47
2022-09-18T02:55:48.973Z,10.47
2022-09-18T02:58:31.584Z,10.42
2022-09-18T03:01:05.460Z,10.47
2022-09-18T03:03:39.533Z,10.38
2022-09-18T03:06:11.561Z,10.29
2022-09-18T03:08:43.596Z,10.27
2022-09-18T03:11:15.532Z,10.29
2022-09-18T03:13:47.549Z,10.30
2022-09-18T03:16:19.534Z,10.31
2022-09-18T03:18:51.469Z,10.34
2022-09-18T03:21:23.448Z,10.38
2022-09-18T03:23:55.712Z,10.37
2022-09-18T03:26:27.742Z,10.39
2022-09-18T03:29:00.071Z,10.37
2022-09-18T03:31:32.116Z,10.36
2022-09-18T03:34:04.800Z,10.37
2022-09-18T03:36:36.954Z,10.34
2022-09-18T03:39:08.845Z,10.27
2022-09-18T03:41:40.773Z,10.24
2022-09-18T03:44:12.649Z,10.15
2022-09-18T03:46:44.654Z,10.14
2022-09-18T03:49:16.636Z,10.12
2022-09-18T03:51:48.518Z,10.10
2022-09-18T03:54:20.459Z,10.12
2022-09-18T03:56:52.523Z,10.14
2022-09-18T03:59:24.419Z,10.13
2022-09-18T04:01:57.639Z,10.11
2022-09-18T04:04:30.027Z,10.21
2022-09-18T04:07:02.219Z,10.27
2022-09-18T04:09:34.789Z,10.34
2022-09-18T04:12:07.065Z,10.39
2022-09-18T04:14:38.973Z,10.42
2022-09-18T04:17:11.204Z,10.42
2022-09-18T04:19:43.088Z,10.38
2022-09-18T04:22:15.055Z,10.38
2022-09-18T04:24:47.515Z,10.34
2022-09-18T04:27:19.676Z,10.34
2022-09-18T04:29:51.598Z,10.33
2022-09-18T04:32:23.524Z,10.31
2022-09-18T04:34:55.487Z,10.32
2022-09-18T04:37:27.570Z,10.24
2022-09-18T04:39:59.524Z,10.24
2022-09-18T04:42:32.341Z,10.19
2022-09-18T04:45:04.992Z,10.20
2022-09-18T04:47:37.068Z,10.24
2022-09-18T04:50:10.962Z,10.23
2022-09-18T04:52:44.004Z,10.30
2022-09-18T04:55:15.977Z,10.37
2022-09-18T04:57:51.231Z,10.36
2022-09-18T05:00:26.370Z,10.28
2022-09-18T05:02:58.395Z,10.25
2022-09-18T05:05:30.584Z,10.29
2022-09-18T05:08:03.922Z,10.24
2022-09-18T05:10:35.892Z,10.11
2022-09-18T05:13:07.840Z,10.16
2022-09-18T05:15:39.763Z,10.15
2022-09-18T05:18:12.645Z,10.20
2022-09-18T05:20:44.529Z,10.25
2022-09-18T05:23:16.723Z,10.12
2022-09-18T05:25:48.671Z,10.10
2022-09-18T05:28:20.609Z,10.10
2022-09-18T05:30:52.600Z,10.09
2022-09-18T05:33:24.505Z,10.07
2022-09-18T05:35:57.909Z,10.07
2022-09-18T05:38:29.915Z,10.13
2022-09-18T05:41:03.067Z,10.02
2022-09-18T05:43:35.113Z,10.11
2022-09-18T05:46:07.179Z,10.04
2022-09-18T05:48:39.340Z,10.08
2022-09-18T05:51:11.278Z,10.06
2022-09-18T05:53:48.342Z,10.19
2022-09-18T05:56:20.369Z,10.11
2022-09-18T05:58:52.371Z,10.15
2022-09-18T06:01:24.528Z,10.24
2022-09-18T06:03:56.653Z,10.32
2022-09-18T06:06:29.809Z,10.33
2022-09-18T06:09:01.736Z,10.42
2022-09-18T06:11:33.970Z,10.56
2022-09-18T06:14:06.074Z,10.83
2022-09-18T06:16:42.111Z,11.01
2022-09-18T06:19:14.467Z,10.94
2022-09-18T06:21:46.605Z,11.00
2022-09-18T06:24:18.614Z,10.96
2022-09-18T06:26:50.540Z,11.00
2022-09-18T06:29:22.484Z,10.92
2022-09-18T06:31:54.517Z,10.76
2022-09-18T06:34:26.521Z,10.85
2022-09-18T06:36:58.423Z,10.95
2022-09-18T06:39:30.317Z,11.06
2022-09-18T06:42:02.318Z,11.03
2022-09-18T06:44:34.239Z,11.01
2022-09-18T06:47:09.469Z,11.16
2022-09-18T06:49:42.557Z,11.16
2022-09-18T06:52:14.757Z,11.31
2022-09-18T06:54:47.848Z,11.54
2022-09-18T06:57:20.114Z,11.58
2022-09-18T06:59:52.018Z,11.71
2022-09-18T07:02:23.970Z,11.73
2022-09-18T07:04:56.025Z,11.81
2022-09-18T07:07:27.917Z,11.97
2022-09-18T07:09:59.958Z,12.21
2022-09-18T07:12:31.953Z,12.32
2022-09-18T07:15:04.209Z,12.28
2022-09-18T07:17:36.165Z,12.25
2022-09-18T07:20:10.039Z,12.29
2022-09-18T07:22:47.117Z,12.29
2022-09-18T07:25:19.540Z,12.34
2022-09-18T07:27:51.623Z,12.23
2022-09-18T07:30:23.638Z,12.14
2022-09-18T07:32:55.728Z,12.01
2022-09-18T07:35:28.599Z,11.99
2022-09-18T07:38:02.419Z,12.08
2022-09-18T07:40:34.973Z,12.02
2022-09-18T07:43:09.922Z,11.97
2022-09-18T07:45:44.829Z,11.93
2022-09-18T07:48:16.777Z,12.00
2022-09-18T07:50:49.000Z,12.29
2022-09-18T07:53:21.428Z,12.46
2022-09-18T07:55:56.088Z,12.49
2022-09-18T07:58:28.143Z,12.54
2022-09-18T08:01:04.789Z,12.74
2022-09-18T08:03:41.228Z,13.04
2022-09-18T08:06:13.696Z,13.49
2022-09-18T08:08:46.806Z,13.89
2022-09-18T08:11:22.501Z,14.21
2022-09-18T08:13:57.563Z,14.68
2022-09-18T08:16:29.554Z,14.74
2022-09-18T08:19:01.688Z,14.15
2022-09-18T08:21:33.866Z,13.75
2022-09-18T08:24:06.194Z,13.54
2022-09-18T08:26:38.841Z,13.41
2022-09-18T08:29:10.860Z,13.10
2022-09-18T08:31:42.898Z,13.08
2022-09-18T08:34:15.502Z,13.09
2022-09-18T08:36:47.544Z,13.18
2022-09-18T08:39:19.508Z,13.46
2022-09-18T08:42:57.656Z,13.67
2022-09-18T08:46:00.862Z,14.29
2022-09-18T08:48:43.240Z,14.93
2022-09-18T08:51:31.220Z,16.56
2022-09-18T08:55:08.328Z,16.95
2022-09-18T08:57:49.782Z,16.97
2022-09-18T09:00:42.706Z,17.09
2022-09-18T09:03:42.828Z,16.44
2022-09-18T09:07:10.329Z,15.97
2022-09-18T09:10:13.384Z,15.41
2022-09-18T09:13:05.018Z,15.04
2022-09-18T09:15:48.375Z,15.10
2022-09-18T09:18:41.361Z,15.34
2022-09-18T09:21:38.513Z,15.02
2022-09-18T09:24:31.431Z,14.94
2022-09-18T09:27:22.354Z,15.44
2022-09-18T09:30:21.165Z,17.20
2022-09-18T09:33:00.567Z,19.47
2022-09-18T09:35:43.053Z,20.69
2022-09-18T09:38:52.377Z,22.27
2022-09-18T09:41:42.614Z,20.33
2022-09-18T09:44:21.801Z,18.52
2022-09-18T09:47:15.471Z,18.03
2022-09-18T09:50:09.111Z,17.15
2022-09-18T09:52:47.451Z,17.30
2022-09-18T09:55:35.305Z,16.42
2022-09-18T09:58:43.453Z,15.90
2022-09-18T10:01:27.311Z,15.51
2022-09-18T10:04:02.204Z,15.16
2022-09-18T10:06:52.250Z,14.88
2022-09-18T10:10:17.050Z,14.18
2022-09-18T10:13:03.047Z,13.10
2022-09-18T10:15:49.263Z,12.70
2022-09-18T10:18:31.183Z,12.48
2022-09-18T10:21:14.534Z,12.23
2022-09-18T10:24:26.766Z,11.75
2022-09-18T10:27:12.324Z,11.46
2022-09-18T10:29:44.443Z,11.30
2022-09-18T10:32:41.900Z,10.97
2022-09-18T10:35:29.582Z,10.86
2022-09-18T10:38:01.668Z,10.76
2022-09-18T10:40:37.850Z,10.84
2022-09-18T10:43:18.924Z,10.78
2022-09-18T10:45:56.317Z,10.91
2022-09-18T10:48:29.462Z,11.07
2022-09-18T10:51:04.395Z,11.16
2022-09-18T10:53:42.725Z,11.22
2022-09-18T10:56:20.582Z,11.25
2022-09-18T10:58:55.945Z,11.28
2022-09-18T11:01:29.612Z,11.38
2022-09-18T11:04:04.486Z,11.45
2022-09-18T11:06:37.863Z,11.75
2022-09-18T11:09:18.452Z,13.87
2022-09-18T11:11:51.522Z,15.75
2022-09-18T11:14:50.705Z,16.51
2022-09-18T11:17:29.302Z,18.22
2022-09-18T11:20:03.833Z,19.60
2022-09-18T11:22:44.560Z,21.24
2022-09-18T11:25:21.717Z,22.43
2022-09-18T11:27:58.540Z,23.20
2022-09-18T11:30:36.184Z,22.30
2022-09-18T11:33:30.671Z,21.08
2022-09-18T11:36:07.930Z,19.80
2022-09-18T11:38:45.731Z,20.41
2022-09-18T11:41:36.948Z,21.72
2022-09-18T11:44:17.044Z,22.57
2022-09-18T11:47:20.800Z,22.56
2022-09-18T11:50:02.288Z,22.34
2022-09-18T11:52:51.916Z,22.44
2022-09-18T11:55:40.196Z,22.93
2022-09-18T11:58:18.656Z,23.99
2022-09-18T12:01:43.302Z,24.97
2022-09-18T12:04:42.296Z,26.14
2022-09-18T12:07:38.392Z,25.92
2022-09-18T12:10:54.157Z,23.58
2022-09-18T12:13:58.775Z,19.61
2022-09-18T12:17:01.269Z,17.44
2022-09-18T12:19:38.241Z,16.19
2022-09-18T12:22:20.168Z,15.63
2022-09-18T12:24:52.166Z,15.09
2022-09-18T12:28:02.343Z,15.37
2022-09-18T12:30:54.275Z,15.93
2022-09-18T12:34:19.294Z,15.34
2022-09-18T12:37:05.759Z,15.08
2022-09-18T12:40:09.699Z,14.72
2022-09-18T12:43:01.798Z,14.33
2022-09-18T12:46:11.153Z,13.91
2022-09-18T12:49:55.233Z,13.82
2022-09-18T12:53:10.287Z,13.55
2022-09-18T12:56:06.931Z,13.51
2022-09-18T12:59:10.985Z,13.50
2022-09-18T13:01:56.664Z,13.57
2022-09-18T13:04:39.185Z,13.66
2022-09-18T13:07:22.221Z,13.97
2022-09-18T13:10:06.135Z,14.50
2022-09-18T13:13:04.448Z,14.95
2022-09-18T13:15:46.410Z,15.14
2022-09-18T13:18:31.750Z,15.38
2022-09-18T13:21:16.088Z,15.50
2022-09-18T13:23:49.491Z,15.46
2022-09-18T13:26:24.722Z,15.70
2022-09-18T13:28:57.033Z,15.77
2022-09-18T13:31:32.161Z,15.84
2022-09-18T13:34:16.734Z,15.94
2022-09-18T13:36:48.666Z,15.86
2022-09-18T13:39:37.587Z,15.94
2022-09-18T13:42:32.360Z,16.20
2022-09-18T13:45:20.855Z,16.30
2022-09-18T13:48:35.540Z,16.46
2022-09-18T13:51:33.102Z,15.70
2022-09-18T13:54:11.169Z,15.33
2022-09-18T13:57:02.909Z,14.77
2022-09-18T13:59:47.518Z,14.43
2022-09-18T14:02:31.611Z,14.47
2022-09-18T14:05:38.121Z,14.58
2022-09-18T14:08:19.391Z,14.34
2022-09-18T14:11:17.234Z,14.17
2022-09-18T14:13:54.371Z,14.21
2022-09-18T14:16:33.190Z,14.28
2022-09-18T14:19:30.635Z,14.41
2022-09-18T14:22:03.042Z,14.54
2022-09-18T14:24:50.520Z,14.54
2022-09-18T14:27:36.296Z,14.58
2022-09-18T14:30:27.015Z,14.76
2022-09-18T14:33:26.237Z,15.04
2022-09-18T14:36:05.025Z,15.13
2022-09-18T14:38:38.899Z,15.01
2022-09-18T14:41:23.497Z,14.99
2022-09-18T14:44:01.843Z,15.01
2022-09-18T14:46:34.113Z,14.84
2022-09-18T14:49:34.498Z,14.57
2022-09-18T14:52:29.394Z,14.50
2022-09-18T14:55:19.486Z,14.66
2022-09-18T14:57:59.195Z,14.83
2022-09-18T15:00:34.246Z,14.90
2022-09-18T15:03:18.585Z,14.82
2022-09-18T15:05:55.775Z,14.81
2022-09-18T15:08:27.961Z,14.79
2022-09-18T15:11:00.061Z,14.76
2022-09-18T15:13:37.832Z,14.75
2022-09-18T15:16:27.471Z,14.79
2022-09-18T15:19:00.681Z,14.70
2022-09-18T15:21:34.011Z,14.49
2022-09-18T15:24:06.427Z,13.92
2022-09-18T15:26:47.878Z,13.33
2022-09-18T15:29:26.973Z,13.10
2022-09-18T15:32:02.216Z,13.02
2022-09-18T15:34:46.505Z,12.90
2022-09-18T15:37:23.887Z,12.87
2022-09-18T15:40:09.384Z,12.71
2022-09-18T15:42:53.286Z,12.50
2022-09-18T15:45:29.083Z,12.46
2022-09-18T15:48:40.005Z,12.28
2022-09-18T15:51:28.886Z,12.30
2022-09-18T15:54:13.236Z,12.21
2022-09-18T15:56:58.520Z,12.19
2022-09-18T15:59:40.827Z,12.22
2022-09-18T16:02:32.165Z,12.23
2022-09-18T16:05:12.237Z,12.32
2022-09-18T16:08:06.276Z,12.45
2022-09-18T16:10:51.128Z,12.57
2022-09-18T16:13:22.997Z,12.66
2022-09-18T16:16:23.871Z,12.80
2022-09-18T16:19:10.353Z,12.94
2022-09-18T16:21:44.175Z,12.90
2022-09-18T16:24:29.744Z,12.98
2022-09-18T16:27:08.287Z,13.07
2022-09-18T16:29:40.398Z,13.06
2022-09-18T16:32:13.223Z,13.02
2022-09-18T16:34:46.807Z,13.04
2022-09-18T16:37:19.224Z,12.94
2022-09-18T16:39:51.185Z,13.02
2022-09-18T16:42:23.922Z,12.98
2022-09-18T16:44:55.874Z,12.99
2022-09-18T16:47:27.859Z,12.97
2022-09-18T16:50:00.412Z,12.93
2022-09-18T16:52:32.330Z,12.91
2022-09-18T16:55:04.723Z,13.01
2022-09-18T16:57:36.870Z,13.00
2022-09-18T17:00:10.712Z,12.97
2022-09-18T17:02:42.821Z,12.98
2022-09-18T17:05:15.621Z,12.97
2022-09-18T17:07:47.609Z,13.01
2022-09-18T17:10:19.565Z,12.97
2022-09-18T17:12:51.508Z,12.90
2022-09-18T17:15:23.557Z,12.77
2022-09-18T17:17:55.760Z,12.50
2022-09-18T17:20:27.731Z,12.30
2022-09-18T17:22:59.849Z,12.23
2022-09-18T17:25:31.832Z,12.12
2022-09-18T17:28:03.877Z,11.95
2022-09-18T17:30:39.255Z,11.96
2022-09-18T17:33:11.463Z,11.88
2022-09-18T17:35:43.444Z,11.81
2022-09-18T17:38:16.084Z,11.82
2022-09-18T17:41:00.675Z,11.78
2022-09-18T17:43:33.166Z,11.79
2022-09-18T17:46:09.343Z,11.83
2022-09-18T17:48:41.720Z,11.80
2022-09-18T17:51:18.637Z,11.72
2022-09-18T17:53:57.602Z,11.72
2022-09-18T17:56:30.568Z,11.78
2022-09-18T17:59:09.778Z,11.71
2022-09-18T18:01:46.190Z,11.65
2022-09-18T18:04:18.267Z,11.70
2022-09-18T18:06:50.308Z,11.72
2022-09-18T18:09:22.834Z,11.73
2022-09-18T18:11:55.244Z,11.78
2022-09-18T18:14:31.259Z,11.81
2022-09-18T18:17:04.188Z,11.76
2022-09-18T18:19:36.124Z,11.82
2022-09-18T18:22:08.099Z,11.87
2022-09-18T18:24:40.124Z,11.93
2022-09-18T18:27:12.170Z,11.96
2022-09-18T18:29:45.568Z,11.92
2022-09-18T18:32:18.388Z,11.87
2022-09-18T18:34:50.543Z,11.80
2022-09-18T18:37:22.499Z,11.62
2022-09-18T18:39:54.495Z,11.48
2022-09-18T18:42:28.319Z,11.47
2022-09-18T18:45:01.118Z,11.44
2022-09-18T18:47:33.183Z,11.44
2022-09-18T18:50:06.789Z,11.44
2022-09-18T18:52:38.719Z,11.45
2022-09-18T18:55:10.971Z,11.48
2022-09-18T18:57:42.939Z,11.55
2022-09-18T19:00:14.960Z,11.53
2022-09-18T19:02:49.007Z,11.55
2022-09-18T19:05:27.788Z,11.61
2022-09-18T19:07:59.737Z,11.66
2022-09-18T19:10:31.981Z,11.69
2022-09-18T19:13:04.777Z,11.72
2022-09-18T19:15:38.525Z,11.75
2022-09-18T19:18:10.660Z,11.74
2022-09-18T19:20:42.574Z,11.68
2022-09-18T19:23:16.460Z,11.71
2022-09-18T19:25:48.413Z,11.70
2022-09-18T19:28:20.435Z,11.71
2022-09-18T19:30:53.792Z,11.69
2022-09-18T19:33:26.301Z,11.69
2022-09-18T19:36:07.544Z,11.71
2022-09-18T19:38:39.751Z,11.70
2022-09-18T19:41:39.703Z,11.69
2022-09-18T19:45:01.869Z,11.66
2022-09-18T19:47:50.962Z,11.65
2022-09-18T19:50:29.111Z,11.65
2022-09-18T19:53:02.066Z,11.66
2022-09-18T19:55:34.242Z,11.67
2022-09-18T19:58:07.248Z,11.71
2022-09-18T20:00:42.339Z,11.73
2022-09-18T20:03:15.401Z,11.73
2022-09-18T20:05:47.825Z,11.70
2022-09-18T20:08:19.841Z,11.73
2022-09-18T20:10:52.242Z,11.70
2022-09-18T20:13:26.284Z,11.68
2022-09-18T20:16:07.077Z,11.58
2022-09-18T20:18:39.483Z,11.58
2022-09-18T20:21:15.973Z,11.52
2022-09-18T20:23:48.450Z,11.54
2022-09-18T20:26:20.427Z,11.53
2022-09-18T20:28:52.678Z,11.57
2022-09-18T20:31:25.126Z,11.58
2022-09-18T20:33:58.548Z,11.58
2022-09-18T20:36:32.147Z,11.61
2022-09-18T20:39:04.240Z,11.56
2022-09-18T20:41:36.258Z,11.45
2022-09-18T20:44:08.734Z,11.45
2022-09-18T20:46:42.539Z,11.48
2022-09-18T20:49:17.529Z,11.42
2022-09-18T20:51:50.241Z,11.48
2022-09-18T20:54:22.883Z,11.44
2022-09-18T20:56:54.901Z,11.48
2022-09-18T20:59:27.080Z,11.53
2022-09-18T21:01:59.033Z,11.52
2022-09-18T21:04:31.029Z,11.51
2022-09-18T21:07:03.269Z,11.54
2022-09-18T21:09:35.304Z,11.59
2022-09-18T21:12:07.337Z,11.60
2022-09-18T21:14:39.261Z,11.60
2022-09-18T21:17:11.238Z,11.58
2022-09-18T21:19:43.127Z,11.58
2022-09-18T21:22:15.045Z,11.58
2022-09-18T21:24:46.959Z,11.58
2022-09-18T21:27:18.861Z,11.58
2022-09-18T21:29:50.788Z,11.58
2022-09-18T21:32:23.246Z,11.54
2022-09-18T21:34:55.176Z,11.58
2022-09-18T21:37:27.110Z,11.55
2022-09-18T21:39:59.058Z,11.51
2022-09-18T21:42:31.079Z,11.54
2022-09-18T21:45:03.538Z,11.56
2022-09-18T21:47:36.263Z,11.52
2022-09-18T21:50:08.592Z,11.62
2022-09-18T21:52:42.855Z,11.62
2022-09-18T21:55:14.831Z,11.56
2022-09-18T21:57:47.023Z,11.58
2022-09-18T22:00:18.977Z,11.60
2022-09-18T22:02:54.807Z,11.60
2022-09-18T22:05:29.413Z,11.63
2022-09-18T22:08:01.682Z,11.59
2022-09-18T22:10:35.295Z,11.56
2022-09-18T22:13:07.207Z,11.56
2022-09-18T22:15:39.089Z,11.58
2022-09-18T22:18:11.174Z,11.58
2022-09-18T22:20:43.099Z,11.58
2022-09-18T22:23:14.991Z,11.57
2022-09-18T22:25:46.927Z,11.57
2022-09-18T22:28:18.924Z,11.59
2022-09-18T22:30:51.007Z,11.59
2022-09-18T22:33:26.157Z,11.59
2022-09-18T22:36:06.421Z,11.58
2022-09-18T22:38:38.367Z,11.58
2022-09-18T22:41:10.498Z,11.58
2022-09-18T22:43:42.528Z,11.60
2022-09-18T22:46:16.993Z,11.60
2022-09-18T22:48:49.688Z,11.58
2022-09-18T22:51:27.336Z,11.54
2022-09-18T22:54:07.806Z,11.50
2022-09-18T22:56:45.423Z,11.45
2022-09-18T22:59:20.109Z,11.42
2022-09-18T23:01:55.363Z,11.36
2022-09-18T23:04:31.746Z,11.38
2022-09-18T23:07:04.304Z,11.34
2022-09-18T23:09:36.250Z,11.24
2022-09-18T23:12:08.172Z,11.26
2022-09-18T23:14:40.189Z,11.25
2022-09-18T23:17:12.536Z,11.22
2022-09-18T23:19:44.497Z,11.21
2022-09-18T23:22:16.420Z,11.20
2022-09-18T23:24:49.288Z,11.19
2022-09-18T23:27:21.214Z,11.16
2022-09-18T23:29:53.158Z,11.15
2022-09-18T23:32:25.230Z,11.13
2022-09-18T23:34:57.181Z,11.10
2022-09-18T23:37:29.523Z,11.09
2022-09-18T23:40:01.971Z,11.13
2022-09-18T23:42:33.913Z,11.11
2022-09-18T23:45:06.499Z,11.11
2022-09-18T23:47:38.448Z,11.06
2022-09-18T23:50:10.367Z,11.05
2022-09-18T23:52:43.674Z,11.07
2022-09-18T23:55:15.760Z,11.04
2022-09-18T23:57:47.696Z,11.01
